Time;durP1;ratioP1;P1;durP2;ratioP2;P2;SDS_P1;SDS_P2;PMS_P1;PMS_P2;Temp;Humidity;BMP_temperature;BMP_pressure;BME280_temperature;BME280_humidity;BME280_pressure;Samples;Min_cycle;Max_cycle;Signal;HPM_P1;HPM_P2
2023/04/25 00:00:38;;;;;;;26.87;4.07;;;;;;;13.94;48.32;101211.53;5048869;28;20032;-70
2023/04/25 00:03:06;;;;;;;25.87;7.57;;;;;;;13.91;48.02;101209.84;5055645;28;20123;-71
2023/04/25 00:05:31;;;;;;;22.13;4.30;;;;;;;12.70;50.84;101206.38;5048662;28;20035;-70
2023/04/25 00:07:58;;;;;;;21.93;5.47;;;;;;;13.80;49.06;101217.91;5047989;28;20037;-70
2023/04/25 00:10:23;;;;;;;25.80;4.93;;;;;;;14.41;47.47;101226.44;5050500;28;20028;-70
2023/04/25 00:12:49;;;;;;;30.20;5.80;;;;;;;14.58;46.90;101222.59;5054287;28;20028;-70
2023/04/25 00:15:14;;;;;;;18.47;3.60;;;;;;;14.51;46.34;101219.22;5069552;28;20100;-70
2023/04/25 00:17:39;;;;;;;17.00;3.87;;;;;;;13.78;47.67;101221.44;5048166;28;20025;-71
2023/04/25 00:20:07;;;;;;;20.63;3.60;;;;;;;13.74;48.14;101221.50;5039749;28;20067;-71
2023/04/25 00:22:34;;;;;;;26.47;4.13;;;;;;;14.16;47.03;101226.00;5052087;28;20020;-71
2023/04/25 00:25:00;;;;;;;27.00;4.57;;;;;;;14.65;46.20;101228.63;5069101;28;20016;-71
2023/04/25 00:27:26;;;;;;;23.40;4.30;;;;;;;14.23;47.23;101226.78;5059756;28;20064;-71
2023/04/25 00:29:52;;;;;;;17.73;4.17;;;;;;;14.82;45.93;101230.91;5029305;28;20032;-71
2023/04/25 00:32:17;;;;;;;21.83;4.33;;;;;;;14.64;44.96;101225.13;5040463;28;20025;-71
2023/04/25 00:34:42;;;;;;;21.00;5.10;;;;;;;14.68;45.38;101225.94;5055130;28;20622;-71
2023/04/25 00:37:08;;;;;;;20.40;4.30;;;;;;;13.95;46.58;101216.78;5044304;28;20112;-70
2023/04/25 00:39:33;;;;;;;17.80;5.03;;;;;;;14.80;45.57;101219.56;5031275;28;20036;-71
2023/04/25 00:41:59;;;;;;;25.17;6.20;;;;;;;14.65;45.75;101224.22;5045321;28;20020;-70
2023/04/25 00:44:24;;;;;;;22.73;6.53;;;;;;;14.73;45.54;101232.81;5066054;28;20289;-70
2023/04/25 00:46:50;;;;;;;25.67;5.90;;;;;;;13.94;48.18;101230.78;5055381;28;20031;-72
2023/04/25 00:49:16;;;;;;;25.83;4.97;;;;;;;14.34;46.57;101237.97;5047699;28;20049;-72
2023/04/25 00:51:44;;;;;;;18.47;4.50;;;;;;;14.59;45.88;101230.44;5037726;28;20070;-72
2023/04/25 00:54:11;;;;;;;18.80;3.50;;;;;;;13.61;47.38;101238.34;5047752;28;20021;-70
2023/04/25 00:56:37;;;;;;;24.80;3.73;;;;;;;13.82;47.01;101238.91;5068198;28;20054;-71
2023/04/25 00:59:06;;;;;;;19.10;5.13;;;;;;;14.10;46.05;101239.28;5068903;28;20476;-71
2023/04/25 01:01:31;;;;;;;18.20;3.70;;;;;;;14.37;46.58;101237.03;5053113;28;20124;-70
2023/04/25 01:03:59;;;;;;;22.93;3.97;;;;;;;14.67;46.72;101240.84;5047806;28;20421;-70
2023/04/25 01:06:24;;;;;;;17.47;3.73;;;;;;;15.07;45.38;101237.38;5041457;28;20032;-72
2023/04/25 01:08:51;;;;;;;19.87;3.63;;;;;;;15.30;44.90;101235.09;5044787;28;20068;-71
2023/04/25 01:11:16;;;;;;;16.03;4.27;;;;;;;15.47;43.93;101239.97;5040898;28;20021;-71
2023/04/25 01:13:42;;;;;;;22.73;4.43;;;;;;;14.75;44.41;101244.19;5041796;28;20083;-70
2023/04/25 01:16:07;;;;;;;21.40;4.03;;;;;;;14.94;44.66;101241.16;5064136;28;20028;-71
2023/04/25 01:18:33;;;;;;;19.40;3.90;;;;;;;14.39;44.86;101243.97;5067560;28;20101;-70
2023/04/25 01:21:16;;;;;;;18.20;3.17;;;;;;;14.37;45.92;101244.91;5069946;28;20035;-71
2023/04/25 01:23:42;;;;;;;18.17;4.67;;;;;;;14.05;46.49;101244.63;5044283;28;20563;-70
2023/04/25 01:26:11;;;;;;;20.70;4.77;;;;;;;14.51;45.36;101252.56;5049307;28;20017;-72
2023/04/25 01:28:39;;;;;;;21.97;5.10;;;;;;;14.54;46.06;101252.50;5038701;28;20029;-72
2023/04/25 01:31:05;;;;;;;20.07;5.07;;;;;;;14.78;44.76;101248.50;5027511;28;20444;-72
2023/04/25 01:33:31;;;;;;;21.40;4.50;;;;;;;14.68;44.31;101250.47;5050456;28;20055;-70
2023/04/25 01:35:56;;;;;;;22.37;5.97;;;;;;;14.31;45.58;101260.81;5047915;28;20108;-72
2023/04/25 01:38:21;;;;;;;13.20;3.30;;;;;;;14.70;45.08;101259.22;5047655;28;20068;-71
2023/04/25 01:40:50;;;;;;;14.70;3.83;;;;;;;14.72;45.61;101261.81;5048459;28;20464;-71
2023/04/25 01:43:16;;;;;;;12.10;4.20;;;;;;;14.54;45.60;101263.00;5051954;28;20026;-70
2023/04/25 01:45:42;;;;;;;14.83;4.17;;;;;;;14.23;47.29;101268.84;5057710;28;20467;-71
2023/04/25 01:48:09;;;;;;;19.73;4.20;;;;;;;14.35;46.16;101263.34;5047588;28;20434;-71
2023/04/25 01:50:34;;;;;;;17.63;4.70;;;;;;;14.31;47.19;101258.19;5036915;28;20048;-70
2023/04/25 01:53:01;;;;;;;11.80;4.10;;;;;;;14.48;45.93;101268.38;5035645;28;20545;-71
2023/04/25 01:55:27;;;;;;;17.83;3.57;;;;;;;14.52;45.66;101276.19;5061320;28;20556;-71
2023/04/25 01:57:52;;;;;;;21.53;4.07;;;;;;;14.74;45.41;101271.41;5053340;28;20108;-71
2023/04/25 02:00:18;;;;;;;21.83;4.93;;;;;;;14.45;46.64;101268.44;5052449;28;20028;-71
2023/04/25 02:02:43;;;;;;;18.37;4.23;;;;;;;14.43;46.46;101266.69;5046403;28;20061;-71
2023/04/25 02:05:08;;;;;;;22.20;5.00;;;;;;;14.46;46.70;101271.03;5038785;28;20546;-71
2023/04/25 02:07:34;;;;;;;16.60;4.43;;;;;;;14.72;46.15;101280.22;5072637;28;20020;-72
2023/04/25 02:09:59;;;;;;;20.97;4.60;;;;;;;14.63;47.20;101280.41;5052776;28;20025;-71
2023/04/25 02:12:26;;;;;;;25.67;6.67;;;;;;;15.15;45.92;101273.19;5031104;28;20071;-71
2023/04/25 02:14:51;;;;;;;20.03;6.60;;;;;;;14.90;46.42;101271.06;5043708;28;20029;-72
2023/04/25 02:17:17;;;;;;;21.37;5.57;;;;;;;14.74;45.28;101271.41;5034725;28;20027;-71
2023/04/25 02:19:43;;;;;;;16.73;5.50;;;;;;;15.24;45.58;101272.97;5050461;28;20052;-71
2023/04/25 02:22:08;;;;;;;18.30;4.93;;;;;;;15.32;44.55;101273.69;5031263;28;20028;-71
2023/04/25 02:24:34;;;;;;;25.43;4.97;;;;;;;14.82;45.31;101273.00;5031656;28;20018;-71
2023/04/25 02:27:00;;;;;;;13.53;3.40;;;;;;;15.10;44.96;101279.41;5046286;28;20028;-71
2023/04/25 02:29:26;;;;;;;14.03;3.97;;;;;;;15.14;43.78;101281.97;5038136;28;20385;-70
2023/04/25 02:31:51;;;;;;;18.40;4.10;;;;;;;14.71;44.11;101276.75;5032786;28;20033;-71
2023/04/25 02:34:16;;;;;;;21.67;4.33;;;;;;;14.90;43.92;101276.34;5040096;28;20033;-71
2023/04/25 02:36:42;;;;;;;19.63;4.67;;;;;;;14.66;44.70;101277.69;5058045;28;20373;-71
2023/04/25 02:39:07;;;;;;;17.50;3.87;;;;;;;14.56;43.65;101276.97;5037425;28;20116;-71
2023/04/25 02:41:33;;;;;;;19.40;4.73;;;;;;;14.88;44.14;101288.69;5030727;28;20026;-71
2023/04/25 02:43:58;;;;;;;19.60;4.63;;;;;;;14.99;43.02;101281.41;5032424;28;20029;-71
2023/04/25 02:46:23;;;;;;;12.47;3.40;;;;;;;14.95;43.64;101285.00;5053143;28;20435;-71
2023/04/25 02:48:49;;;;;;;18.40;3.53;;;;;;;15.18;43.28;101281.91;5055327;28;20029;-72
2023/04/25 02:51:16;;;;;;;14.60;2.97;;;;;;;15.29;43.17;101286.03;5041248;28;20025;-71
2023/04/25 02:53:41;;;;;;;13.97;2.97;;;;;;;15.41;43.35;101291.91;5031264;28;20057;-71
2023/04/25 02:56:06;;;;;;;9.57;3.10;;;;;;;15.37;42.65;101282.34;5049335;28;20024;-71
2023/04/25 02:58:32;;;;;;;20.90;3.17;;;;;;;14.84;42.95;101281.75;5072439;28;20028;-71
2023/04/25 03:00:57;;;;;;;15.83;2.83;;;;;;;15.18;42.91;101275.75;5062427;28;20499;-71
2023/04/25 03:03:22;;;;;;;17.00;3.50;;;;;;;14.80;43.13;101275.66;5049800;28;20025;-71
2023/04/25 03:05:51;;;;;;;11.53;3.67;;;;;;;15.60;43.13;101273.88;5042567;28;20078;-70
2023/04/25 03:08:17;;;;;;;11.77;2.80;;;;;;;15.90;42.27;101274.06;5039643;28;20032;-70
2023/04/25 03:10:44;;;;;;;12.83;3.33;;;;;;;15.65;42.31;101281.69;5048998;28;20025;-71
2023/04/25 03:13:09;;;;;;;15.47;3.40;;;;;;;15.36;42.30;101280.59;5031129;28;20033;-71
2023/04/25 03:15:35;;;;;;;12.70;3.07;;;;;;;15.46;43.19;101280.41;5041562;28;20024;-72
2023/04/25 03:18:01;;;;;;;15.37;2.53;;;;;;;15.73;42.68;101273.59;5051675;28;20024;-72
2023/04/25 03:20:26;;;;;;;11.33;2.87;;;;;;;15.64;43.20;101277.31;5070130;28;20507;-71
2023/04/25 03:22:52;;;;;;;10.70;2.53;;;;;;;15.80;43.16;101276.97;5033981;28;20025;-71
2023/04/25 03:25:17;;;;;;;11.73;2.50;;;;;;;16.17;41.39;101278.66;5029641;28;20021;-71
2023/04/25 03:27:42;;;;;;;14.03;3.13;;;;;;;16.30;41.81;101280.06;5047015;28;20018;-71
2023/04/25 03:30:08;;;;;;;14.20;2.80;;;;;;;15.98;41.79;101278.28;5057505;28;20033;-71
2023/04/25 03:32:34;;;;;;;14.43;3.50;;;;;;;14.58;43.43;101291.00;5032037;28;20032;-71
2023/04/25 03:34:59;;;;;;;18.13;2.97;;;;;;;14.33;44.45;101290.56;5030458;28;20444;-71
2023/04/25 03:37:25;;;;;;;9.77;2.57;;;;;;;14.13;44.83;101293.56;5028715;28;20021;-71
2023/04/25 03:39:50;;;;;;;7.97;2.43;;;;;;;14.74;44.16;101300.34;5050668;28;20037;-71
2023/04/25 03:42:16;;;;;;;8.63;2.30;;;;;;;13.83;45.31;101306.31;5049948;28;20461;-71
2023/04/25 03:44:42;;;;;;;8.40;2.27;;;;;;;15.15;44.10;101310.03;5050693;28;20033;-71
2023/04/25 03:47:07;;;;;;;10.33;2.47;;;;;;;13.82;45.78;101309.84;5029501;28;20059;-72
2023/04/25 03:49:35;;;;;;;16.00;2.33;;;;;;;14.21;45.39;101307.44;5059875;28;20044;-71
2023/04/25 03:52:00;;;;;;;10.70;2.67;;;;;;;14.68;44.63;101303.09;5044303;28;20485;-70
2023/04/25 03:54:26;;;;;;;10.63;2.40;;;;;;;14.25;45.01;101311.75;5035243;28;20119;-71
2023/04/25 03:56:51;;;;;;;16.10;2.80;;;;;;;14.01;46.25;101294.63;5049946;28;20044;-71
2023/04/25 03:59:16;;;;;;;12.60;2.33;;;;;;;14.72;45.17;101310.03;5047907;28;20021;-71
2023/04/25 04:01:42;;;;;;;17.17;3.27;;;;;;;15.47;44.60;101316.34;5065438;28;20037;-71
2023/04/25 04:04:07;;;;;;;13.63;2.33;;;;;;;15.38;43.36;101314.81;5032209;28;20112;-71
2023/04/25 04:06:33;;;;;;;22.47;2.80;;;;;;;15.34;43.96;101319.25;5028718;28;20057;-71
2023/04/25 04:08:58;;;;;;;13.17;2.53;;;;;;;14.54;45.27;101315.63;5029630;28;20068;-70
2023/04/25 04:11:24;;;;;;;14.40;2.53;;;;;;;15.27;44.10;101313.25;5029205;28;20437;-71
2023/04/25 04:13:49;;;;;;;14.00;2.37;;;;;;;15.56;44.15;101329.31;5034574;28;20095;-71
2023/04/25 04:16:14;;;;;;;11.40;2.57;;;;;;;15.80;43.57;101327.03;5029516;28;20037;-71
2023/04/25 04:18:40;;;;;;;16.47;2.47;;;;;;;14.92;44.64;101324.56;5030118;28;20044;-71
2023/04/25 04:21:05;;;;;;;11.87;2.00;;;;;;;14.59;46.18;101322.53;5029167;28;20090;-71
2023/04/25 04:23:31;;;;;;;15.17;2.07;;;;;;;14.41;45.35;101325.47;5048235;28;20087;-71
2023/04/25 04:25:56;;;;;;;8.70;2.03;;;;;;;15.01;44.88;101327.00;5048783;28;20032;-71
2023/04/25 04:28:21;;;;;;;12.13;2.60;;;;;;;15.20;44.61;101331.88;5048056;28;20033;-71
2023/04/25 04:30:47;;;;;;;8.43;1.80;;;;;;;14.86;44.99;101335.19;5049342;28;20021;-71
2023/04/25 04:33:14;;;;;;;11.00;2.03;;;;;;;14.95;44.93;101336.78;5054801;28;20451;-71
2023/04/25 04:35:41;;;;;;;16.93;2.13;;;;;;;15.06;45.73;101335.66;5040963;28;20431;-71
2023/04/25 04:38:07;;;;;;;13.43;2.37;;;;;;;14.73;45.05;101331.97;5046285;28;20079;-70
2023/04/25 04:40:32;;;;;;;13.67;2.47;;;;;;;15.22;44.82;101330.06;5038675;28;20518;-70
2023/04/25 04:42:57;;;;;;;13.97;2.50;;;;;;;15.03;44.62;101335.75;5049515;28;20024;-71
2023/04/25 04:45:23;;;;;;;12.33;2.40;;;;;;;14.79;44.92;101346.75;5061025;28;20540;-71
2023/04/25 04:47:49;;;;;;;11.10;2.10;;;;;;;14.99;44.69;101347.22;5048092;28;20103;-71
2023/04/25 04:50:16;;;;;;;15.57;2.90;;;;;;;15.05;44.69;101348.88;5048361;28;20263;-71
2023/04/25 04:52:41;;;;;;;10.97;2.47;;;;;;;15.07;44.36;101353.19;5047562;28;20064;-71
2023/04/25 04:55:07;;;;;;;14.40;2.10;;;;;;;13.81;47.08;101363.31;5055310;28;20036;-71
2023/04/25 04:57:34;;;;;;;9.13;2.47;;;;;;;12.56;49.79;101370.91;5050931;28;20405;-72
2023/04/25 05:00:00;;;;;;;10.93;2.97;;;;;;;13.31;47.51;101363.97;5070135;28;20074;-71
2023/04/25 05:02:25;;;;;;;13.63;2.07;;;;;;;13.48;47.33;101370.78;5052151;28;20037;-71
2023/04/25 05:04:52;;;;;;;9.23;1.97;;;;;;;12.93;47.17;101373.16;5059747;28;20039;-71
2023/04/25 05:07:18;;;;;;;11.63;2.00;;;;;;;13.07;48.14;101376.47;5027892;28;20492;-70
2023/04/25 05:09:44;;;;;;;12.17;2.13;;;;;;;13.05;47.42;101380.88;5044437;28;20033;-71
2023/04/25 05:12:09;;;;;;;11.47;1.80;;;;;;;12.85;47.94;101375.00;5029256;28;20087;-72
2023/04/25 05:14:35;;;;;;;14.73;2.57;;;;;;;14.27;45.06;101385.34;5052625;28;20021;-71
2023/04/25 05:17:00;;;;;;;12.77;2.33;;;;;;;14.40;45.22;101381.63;5044513;28;20456;-71
2023/04/25 05:19:26;;;;;;;7.47;2.10;;;;;;;14.83;44.35;101388.75;5035706;28;20028;-71
2023/04/25 05:21:52;;;;;;;9.67;2.73;;;;;;;14.82;44.27;101388.78;5028088;28;20025;-72
2023/04/25 05:24:17;;;;;;;12.60;2.30;;;;;;;15.07;43.56;101384.78;5044935;28;20028;-71
2023/04/25 05:26:42;;;;;;;14.43;3.10;;;;;;;15.00;44.24;101391.09;5042425;28;20033;-71
2023/04/25 05:29:08;;;;;;;11.77;2.30;;;;;;;14.66;44.77;101407.50;5041281;28;20033;-71
2023/04/25 05:31:34;;;;;;;11.70;2.20;;;;;;;14.84;44.47;101408.94;5033615;28;20025;-71
2023/04/25 05:33:59;;;;;;;8.37;3.40;;;;;;;14.35;45.15;101415.88;5050888;28;20029;-71
2023/04/25 05:36:25;;;;;;;12.27;3.00;;;;;;;14.80;44.75;101416.91;5065992;28;20435;-72
2023/04/25 05:38:51;;;;;;;18.77;2.50;;;;;;;14.95;44.31;101416.63;5048375;28;20032;-71
2023/04/25 05:41:16;;;;;;;11.77;2.43;;;;;;;15.51;43.58;101416.38;5046607;28;20540;-72
2023/04/25 05:43:46;;;;;;;9.40;2.00;;;;;;;15.08;43.79;101433.94;5046563;28;20438;-72
2023/04/25 05:46:12;;;;;;;8.63;3.10;;;;;;;14.66;43.71;101436.44;5027786;28;20029;-72
2023/04/25 05:48:38;;;;;;;9.87;2.10;;;;;;;14.23;44.26;101432.72;5036719;28;20029;-71
2023/04/25 05:51:06;;;;;;;13.57;3.00;;;;;;;14.34;45.23;101443.09;5027620;28;20022;-72
2023/04/25 05:53:31;;;;;;;7.47;2.00;;;;;;;14.06;45.69;101455.78;5042396;28;20118;-71
2023/04/25 05:55:57;;;;;;;11.93;2.13;;;;;;;13.06;46.85;101455.22;5038183;28;20037;-71
2023/04/25 05:58:22;;;;;;;7.00;1.57;;;;;;;12.34;48.82;101462.84;5029816;28;20033;-71
2023/04/25 06:00:48;;;;;;;8.43;2.03;;;;;;;13.62;45.92;101455.50;5048156;28;20027;-71
2023/04/25 06:03:16;;;;;;;9.63;1.60;;;;;;;13.80;45.94;101454.38;5045297;28;20024;-71
2023/04/25 06:05:42;;;;;;;5.00;1.57;;;;;;;13.36;46.77;101464.53;5028283;28;20136;-71
2023/04/25 06:08:07;;;;;;;8.20;1.50;;;;;;;12.66;48.49;101474.81;5062456;28;20370;-71
2023/04/25 06:10:33;;;;;;;11.37;1.50;;;;;;;12.59;48.40;101470.53;5069087;28;20090;-70
2023/04/25 06:12:58;;;;;;;5.57;1.60;;;;;;;13.13;47.62;101477.88;5067145;28;20032;-70
2023/04/25 06:15:24;;;;;;;3.33;0.87;;;;;;;11.70;49.88;101493.75;5047573;28;20033;-71
2023/04/25 06:17:49;;;;;;;6.37;1.83;;;;;;;11.76;50.40;101486.72;5054730;28;20028;-70
2023/04/25 06:20:14;;;;;;;7.67;1.80;;;;;;;11.12;50.60;101496.53;5027945;28;20033;-71
2023/04/25 06:22:40;;;;;;;6.97;1.20;;;;;;;11.95;49.63;101501.53;5029282;28;20367;-72
2023/04/25 06:25:06;;;;;;;4.50;2.13;;;;;;;11.81;49.85;101498.06;5027606;28;20076;-71
2023/04/25 06:27:33;;;;;;;3.20;1.40;;;;;;;11.57;50.09;101507.78;5045618;28;20473;-71
2023/04/25 06:29:58;;;;;;;8.53;1.50;;;;;;;12.14;50.85;101514.53;5033921;28;20055;-71
2023/04/25 06:32:23;;;;;;;6.27;1.43;;;;;;;11.31;52.29;101511.31;5048075;28;20493;-71
2023/04/25 06:34:49;;;;;;;5.50;1.37;;;;;;;12.35;50.97;101509.16;5042084;28;20029;-71
2023/04/25 06:37:14;;;;;;;6.20;1.20;;;;;;;13.16;50.00;101493.63;5039454;28;20461;-71
2023/04/25 06:39:39;;;;;;;4.23;1.40;;;;;;;14.66;45.95;101494.31;5047505;28;20033;-71
2023/04/25 06:42:05;;;;;;;5.03;1.20;;;;;;;14.95;45.20;101497.34;5050493;28;20020;-70
2023/04/25 06:44:30;;;;;;;3.70;1.13;;;;;;;13.65;46.40;101492.22;5051652;28;20492;-70
2023/04/25 06:46:56;;;;;;;8.00;1.30;;;;;;;14.35;45.13;101494.75;5034206;28;20032;-69
2023/04/25 06:49:21;;;;;;;3.37;1.10;;;;;;;14.99;43.78;101493.75;5034300;28;20025;-70
2023/04/25 06:51:47;;;;;;;6.47;1.30;;;;;;;14.91;44.40;101499.19;5043371;28;20128;-69
2023/04/25 06:54:12;;;;;;;6.10;1.47;;;;;;;15.10;43.93;101492.66;5051994;28;20025;-69
2023/04/25 06:56:37;;;;;;;7.13;1.47;;;;;;;15.64;42.00;101496.03;5052656;28;20080;-71
2023/04/25 06:59:04;;;;;;;3.73;1.30;;;;;;;16.33;39.78;101504.22;5051105;28;20102;-70
2023/04/25 07:01:30;;;;;;;4.13;1.10;;;;;;;16.35;40.97;101505.06;5037350;28;20205;-70
2023/04/25 07:03:55;;;;;;;5.97;1.47;;;;;;;16.43;40.27;101502.22;5052270;28;20057;-71
2023/04/25 07:06:21;;;;;;;7.20;1.40;;;;;;;16.56;39.15;101492.25;5049427;28;20040;-71
2023/04/25 07:08:46;;;;;;;7.90;1.67;;;;;;;16.78;39.38;101496.06;5045394;28;20378;-72
2023/04/25 07:11:11;;;;;;;7.30;1.50;;;;;;;16.67;39.75;101506.03;5041782;28;20074;-72
2023/04/25 07:13:37;;;;;;;9.13;1.40;;;;;;;16.35;40.73;101502.41;5037299;28;20425;-71
2023/04/25 07:16:03;;;;;;;3.50;1.30;;;;;;;16.04;40.67;101500.47;5029687;28;20477;-71
2023/04/25 07:18:28;;;;;;;14.97;3.70;;;;;;;16.06;40.94;101503.97;5064103;28;20579;-71
2023/04/25 07:20:53;;;;;;;8.97;2.83;;;;;;;15.89;40.85;101508.72;5047344;28;20029;-70
2023/04/25 07:23:19;;;;;;;7.37;1.60;;;;;;;15.71;41.80;101507.31;5038537;28;20021;-70
2023/04/25 07:25:44;;;;;;;7.97;2.43;;;;;;;16.60;39.90;101507.09;5047384;28;20454;-70
2023/04/25 07:28:10;;;;;;;12.57;2.17;;;;;;;17.07;39.81;101505.06;5048315;28;20032;-70
2023/04/25 07:30:36;;;;;;;10.67;3.03;;;;;;;16.61;40.37;101527.31;5048814;28;20163;-70
2023/04/25 07:33:01;;;;;;;8.43;2.80;;;;;;;16.69;39.53;101517.44;5056083;28;20037;-69
2023/04/25 07:35:27;;;;;;;13.80;2.40;;;;;;;16.92;40.48;101531.88;5049644;28;20025;-70
2023/04/25 07:37:52;;;;;;;12.77;1.77;;;;;;;17.42;38.85;101516.44;5040803;28;20035;-70
2023/04/25 07:40:18;;;;;;;10.90;2.03;;;;;;;17.38;38.94;101520.09;5041912;28;20174;-71
2023/04/25 07:42:43;;;;;;;6.23;1.97;;;;;;;16.98;40.09;101525.56;5047035;28;20511;-70
2023/04/25 07:45:09;;;;;;;10.40;2.43;;;;;;;17.63;39.01;101520.25;5041954;28;20033;-71
2023/04/25 07:47:34;;;;;;;11.47;1.60;;;;;;;16.52;40.02;101532.81;5047647;28;20024;-70
2023/04/25 07:50:00;;;;;;;7.70;1.50;;;;;;;16.01;40.65;101531.34;5048614;28;20511;-71
2023/04/25 07:52:25;;;;;;;10.33;2.00;;;;;;;16.31;39.52;101529.78;5047511;28;20041;-70
2023/04/25 07:54:51;;;;;;;8.00;1.50;;;;;;;17.76;37.45;101519.91;5054222;28;20032;-71
2023/04/25 07:57:18;;;;;;;11.90;1.70;;;;;;;18.37;37.16;101527.78;5046043;28;20495;-70
2023/04/25 07:59:43;;;;;;;9.70;1.60;;;;;;;18.95;34.92;101532.13;5051338;28;20384;-71
2023/04/25 08:02:08;;;;;;;11.87;2.00;;;;;;;18.47;34.82;101534.50;5045260;28;20062;-71
2023/04/25 08:04:34;;;;;;;9.57;1.47;;;;;;;16.88;35.62;101540.72;5040056;28;20032;-71
2023/04/25 08:06:59;;;;;;;5.17;1.30;;;;;;;15.71;37.43;101545.06;5047619;28;20381;-70
2023/04/25 08:09:25;;;;;;;8.77;1.37;;;;;;;15.21;38.63;101549.56;5046795;28;20075;-71
2023/04/25 08:11:50;;;;;;;12.50;1.53;;;;;;;14.86;38.86;101558.91;5028887;28;20029;-71
2023/04/25 08:14:15;;;;;;;9.33;1.33;;;;;;;14.39;39.59;101574.50;5051785;28;20028;-70
2023/04/25 08:16:41;;;;;;;9.17;1.37;;;;;;;14.83;39.45;101569.50;5029010;28;20498;-70
2023/04/25 08:19:07;;;;;;;6.13;1.20;;;;;;;15.59;36.80;101566.38;5053381;28;20032;-70
2023/04/25 08:21:32;;;;;;;8.97;1.50;;;;;;;19.00;34.05;101567.28;5069482;28;20051;-70
2023/04/25 08:23:58;;;;;;;8.03;1.43;;;;;;;20.28;31.16;101564.44;5061253;28;20043;-70
2023/04/25 08:26:25;;;;;;;6.30;1.27;;;;;;;19.25;30.48;101569.09;5048097;28;20186;-71
2023/04/25 08:28:50;;;;;;;10.82;1.20;;;;;;;19.09;30.93;101569.59;5060275;28;20027;-71
2023/04/25 08:31:16;;;;;;;4.38;1.08;;;;;;;18.66;32.18;101581.59;5045956;28;20473;-71
2023/04/25 08:33:42;;;;;;;6.57;0.90;;;;;;;18.51;30.98;101576.78;5028424;28;20031;-71
2023/04/25 08:36:08;;;;;;;13.43;1.27;;;;;;;17.15;34.08;101592.03;5028696;28;20056;-71
2023/04/25 08:38:33;;;;;;;10.93;1.33;;;;;;;16.90;33.67;101597.06;5052776;28;20036;-70
2023/04/25 08:41:00;;;;;;;11.97;1.70;;;;;;;16.82;35.22;101601.63;5048649;28;20039;-70
2023/04/25 08:43:28;;;;;;;4.43;1.10;;;;;;;16.25;35.11;101609.03;5042949;28;20083;-71
2023/04/25 08:45:59;;;;;;;5.10;0.87;;;;;;;15.40;36.63;101619.44;5030328;28;20061;-70
2023/04/25 08:48:27;;;;;;;6.07;1.37;;;;;;;16.65;35.61;101612.56;5037144;28;20043;-71
2023/04/25 08:50:55;;;;;;;14.20;2.07;;;;;;;17.34;35.58;101613.56;5056102;28;20116;-70
2023/04/25 08:53:25;;;;;;;8.37;1.40;;;;;;;18.76;33.17;101598.88;5028264;28;20135;-70
2023/04/25 08:55:53;;;;;;;3.67;0.73;;;;;;;18.43;32.39;101617.56;5028078;28;20511;-71
2023/04/25 08:58:19;;;;;;;9.82;1.30;;;;;;;20.09;31.38;101610.25;5034779;28;20546;-70
2023/04/25 09:00:47;;;;;;;5.35;0.77;;;;;;;18.85;31.49;101618.06;5062024;28;20025;-71
2023/04/25 09:03:12;;;;;;;6.57;1.63;;;;;;;18.58;32.22;101625.97;5049370;28;20510;-70
2023/04/25 09:05:40;;;;;;;4.80;1.05;;;;;;;16.99;34.26;101633.78;5050246;28;20049;-71
2023/04/25 09:08:05;;;;;;;3.47;0.93;;;;;;;18.11;32.25;101635.28;5048435;28;20465;-71
2023/04/25 09:10:31;;;;;;;7.38;1.13;;;;;;;17.99;31.45;101638.28;5064803;28;20039;-70
2023/04/25 09:13:08;;;;;;;7.60;1.10;;;;;;;19.15;31.80;101642.69;5047217;28;20031;-71
2023/04/25 09:15:47;;;;;;;7.60;1.52;;;;;;;18.84;31.38;101653.41;5047122;28;20096;-70
2023/04/25 09:18:12;;;;;;;8.68;1.00;;;;;;;19.15;30.75;101648.88;5049260;28;20568;-71
2023/04/25 09:20:44;;;;;;;4.75;0.70;;;;;;;19.92;30.12;101657.75;5050697;28;20278;-70
2023/04/25 09:23:09;;;;;;;3.17;0.80;;;;;;;19.07;30.03;101653.56;5068558;28;20032;-70
2023/04/25 09:25:43;;;;;;;4.60;0.90;;;;;;;18.02;30.61;101654.03;5069822;28;20035;-70
2023/04/25 09:28:08;;;;;;;3.15;0.70;;;;;;;19.72;29.65;101669.94;5057040;28;20024;-70
2023/04/25 09:30:36;;;;;;;3.35;0.93;;;;;;;17.93;33.62;101675.47;5046600;28;20033;-70
2023/04/25 09:33:06;;;;;;;7.07;1.15;;;;;;;15.06;40.09;101690.22;5040976;28;20028;-70
2023/04/25 09:35:45;;;;;;;10.63;1.73;;;;;;;15.05;40.75;101702.50;5068199;28;20512;-70
2023/04/25 09:38:15;;;;;;;9.07;1.17;;;;;;;16.26;39.83;101689.91;5069040;28;20025;-70
2023/04/25 09:40:41;;;;;;;4.83;0.97;;;;;;;16.85;38.19;101683.38;5063958;28;20021;-70
2023/04/25 09:43:20;;;;;;;6.00;1.10;;;;;;;17.87;37.22;101696.75;5051616;28;20079;-70
2023/04/25 09:45:47;;;;;;;4.43;1.30;;;;;;;19.11;34.37;101694.94;5056961;28;20024;-71
2023/04/25 09:48:21;;;;;;;7.10;1.02;;;;;;;17.70;35.45;101706.00;5047546;28;20029;-71
2023/04/25 09:51:16;;;;;;;8.57;1.00;;;;;;;17.23;36.84;101716.00;5043476;28;20051;-71
2023/04/25 09:53:43;;;;;;;2.72;0.82;;;;;;;20.01;33.44;101697.25;5049032;28;20144;-71
2023/04/25 09:56:10;;;;;;;2.35;0.80;;;;;;;18.12;35.20;101719.03;5062423;28;20060;-71
2023/04/25 09:58:38;;;;;;;4.35;0.60;;;;;;;18.30;35.16;101698.25;5047332;28;20473;-71
2023/04/25 10:01:08;;;;;;;4.38;0.75;;;;;;;17.79;35.08;101713.69;5046815;28;20389;-71
2023/04/25 10:03:35;;;;;;;4.38;1.30;;;;;;;18.40;31.94;101697.06;5049352;28;20028;-70
2023/04/25 10:06:07;;;;;;;5.18;0.90;;;;;;;18.90;32.03;101696.47;5047188;28;20029;-71
2023/04/25 10:08:35;;;;;;;5.25;0.80;;;;;;;19.10;32.18;101710.91;5049444;28;20435;-70
2023/04/25 10:11:07;;;;;;;3.67;0.90;;;;;;;17.56;34.80;101716.09;5045606;28;20021;-70
2023/04/25 10:13:33;;;;;;;3.10;1.00;;;;;;;19.02;32.07;101721.72;5038970;28;20029;-71
2023/04/25 10:16:00;;;;;;;5.78;0.80;;;;;;;18.43;32.41;101712.84;5032220;28;20142;-71
2023/04/25 10:18:27;;;;;;;8.32;1.33;;;;;;;19.43;32.13;101710.72;5031973;28;20436;-70
2023/04/25 10:20:55;;;;;;;9.50;1.20;;;;;;;18.86;32.58;101715.13;5051527;28;20542;-70
2023/04/25 10:23:20;;;;;;;5.63;1.60;;;;;;;17.53;33.63;101734.63;5053631;28;20044;-70
2023/04/25 10:25:46;;;;;;;14.43;1.70;;;;;;;17.47;34.85;101722.44;5061597;28;20039;-71
2023/04/25 10:28:11;;;;;;;5.03;1.13;;;;;;;17.88;35.13;101719.66;5072406;28;20488;-70
2023/04/25 10:30:37;;;;;;;11.63;1.30;;;;;;;17.20;35.13;101731.91;5070947;28;20051;-70
2023/04/25 10:33:17;;;;;;;11.53;1.33;;;;;;;17.58;34.68;101727.47;5048898;28;20108;-71
2023/04/25 10:35:45;;;;;;;12.47;2.17;;;;;;;17.85;34.62;101730.31;5072782;28;20052;-71
2023/04/25 10:38:13;;;;;;;8.05;0.90;;;;;;;18.09;34.90;101729.69;5070748;28;20033;-70
2023/04/25 10:40:39;;;;;;;5.85;0.93;;;;;;;16.97;35.06;101725.38;5071163;28;20107;-70
2023/04/25 10:43:36;;;;;;;9.50;1.60;;;;;;;16.56;37.82;101732.41;5050094;28;20600;-69
2023/04/25 10:46:02;;;;;;;10.43;1.37;;;;;;;17.08;38.88;101726.00;5070914;28;20495;-70
2023/04/25 10:48:30;;;;;;;12.67;1.77;;;;;;;16.75;39.47;101728.47;5072011;28;20039;-70
2023/04/25 10:51:12;;;;;;;6.63;1.27;;;;;;;16.29;40.16;101742.59;5067613;28;20039;-70
2023/04/25 10:53:37;;;;;;;5.63;1.13;;;;;;;17.09;37.58;101717.19;5050835;28;20077;-70
2023/04/25 10:56:20;;;;;;;7.93;1.00;;;;;;;18.81;34.40;101721.44;5072421;28;20024;-70
2023/04/25 10:58:46;;;;;;;4.97;0.90;;;;;;;19.01;34.75;101713.81;5072319;28;20032;-71
2023/04/25 11:01:20;;;;;;;4.22;0.75;;;;;;;17.43;33.91;101734.88;5060883;28;20079;-70
2023/04/25 11:03:47;;;;;;;4.15;1.08;;;;;;;18.08;36.30;101727.97;5036709;28;20024;-70
2023/04/25 11:06:31;;;;;;;6.75;0.90;;;;;;;18.68;33.42;101717.41;5070458;28;20453;-70
2023/04/25 11:08:57;;;;;;;5.35;1.10;;;;;;;17.84;33.00;101733.88;5071355;28;20028;-70
2023/04/25 11:11:23;;;;;;;10.75;1.38;;;;;;;19.07;33.43;101719.81;5060348;28;20100;-70
2023/04/25 11:13:49;;;;;;;5.70;1.25;;;;;;;18.02;35.21;101743.97;5034731;28;20112;-70
2023/04/25 11:16:16;;;;;;;4.57;1.10;;;;;;;17.67;34.81;101737.81;5052003;28;20066;-71
2023/04/25 11:18:42;;;;;;;8.98;1.30;;;;;;;16.90;34.41;101734.38;5050670;28;20021;-71